EGBB/BHX METAR and TAF weather

Enter ICAO airport designator
Station Type Date Time Source
EGBB METAR 2018/04/19 12:50 UTC NOAA

EGBB 191250Z 16005KT 120V210 CAVOK 24/10 Q1023


Station Type Date Time Source
EGBB Decoded METAR 2018/04/19 12:50 UTC NOAA

Birmingham / Airport, United Kingdom (EGBB) 52-27N 001-44W 0M
Apr 19, 2018 - 08:50 AM EDT / 2018.04.19 1250 UTC
Wind: from the SSE (160 degrees) at 6 MPH (5 KT) (direction variable):0
Visibility: greater than 7 mile(s):0
Temperature: 75 F (24 C)
Dew Point: 50 F (10 C)
Relative Humidity: 41%
Pressure (altimeter): 30.21 in. Hg (1023 hPa)
ob: EGBB 191250Z 16005KT 120V210 CAVOK 24/10 Q1023
cycle: 13

Station Type Date Time Source
EGBB TAF 2018/04/19 12:15 UTC NOAA

TAF EGBB 191058Z 1912/2012 21005KT 9999 FEW040 PROB30 1920/1924 5000 HZ
BECMG 2000/2003 5000 HZ PROB30
TEMPO 2003/2008 0800 FG BKN001
BECMG 2008/2010 9999 NSW


Example: see airport list